Time;durP1;ratioP1;P1;durP2;ratioP2;P2;SDS_P1;SDS_P2;PMS_P1;PMS_P2;Temp;Humidity;BMP_temperature;BMP_pressure;BME280_temperature;BME280_humidity;BME280_pressure;Samples;Min_cycle;Max_cycle;Signal;HPM_P1;HPM_P2
2021/06/02 00:00:53;;;;;;;1999.90;999.90;;;;;;;11.47;100.00;95779.78;5071553;28;20296;-61
2021/06/02 00:03:31;;;;;;;1999.90;999.90;;;;;;;11.38;100.00;95782.31;5071635;28;20635;-60
2021/06/02 00:05:58;;;;;;;1999.90;999.90;;;;;;;11.42;100.00;95792.91;5071482;28;20196;-61
2021/06/02 00:08:25;;;;;;;1999.90;999.90;;;;;;;11.38;100.00;95786.75;5071308;28;20232;-61
2021/06/02 00:10:53;;;;;;;1999.90;999.90;;;;;;;11.31;100.00;95781.19;5071393;28;20195;-61
2021/06/02 00:13:21;;;;;;;1999.90;999.90;;;;;;;11.26;100.00;95778.69;5071250;28;20204;-61
2021/06/02 00:15:49;;;;;;;1999.90;999.90;;;;;;;11.20;100.00;95786.56;5071453;28;20192;-60
2021/06/02 00:18:16;;;;;;;1999.90;999.90;;;;;;;11.16;100.00;95782.22;5071479;28;20196;-61
2021/06/02 00:20:45;;;;;;;1999.90;999.90;;;;;;;11.12;100.00;95779.44;5071771;28;20207;-60
2021/06/02 00:23:12;;;;;;;1999.90;999.90;;;;;;;11.07;100.00;95784.72;5070962;28;20205;-61
2021/06/02 00:25:39;;;;;;;1999.90;999.90;;;;;;;11.03;100.00;95777.78;5071084;28;20231;-60
2021/06/02 00:28:06;;;;;;;1999.90;999.90;;;;;;;10.90;100.00;95768.94;5070908;28;20703;-61
2021/06/02 00:30:34;;;;;;;1999.90;999.90;;;;;;;10.67;100.00;95772.44;5071107;28;20295;-61
2021/06/02 00:33:01;;;;;;;1999.90;999.90;;;;;;;10.67;100.00;95768.03;5071048;28;20207;-58
2021/06/02 00:35:28;;;;;;;1999.90;999.90;;;;;;;10.72;100.00;95777.56;5070747;28;20208;-60
2021/06/02 00:37:57;;;;;;;1999.90;999.90;;;;;;;10.63;100.00;95774.84;5071223;28;20715;-61
2021/06/02 00:40:38;;;;;;;1999.90;999.90;;;;;;;10.54;100.00;95786.19;5071051;28;20268;-59
2021/06/02 00:43:05;;;;;;;1999.90;999.90;;;;;;;10.51;100.00;95787.53;5070758;28;20188;-61
2021/06/02 00:45:33;;;;;;;1999.90;999.90;;;;;;;10.53;100.00;95782.06;5071003;28;20197;-60
2021/06/02 00:48:02;;;;;;;1999.90;999.90;;;;;;;10.45;100.00;95780.88;5070577;28;20232;-61
2021/06/02 00:50:29;;;;;;;1999.90;999.90;;;;;;;10.34;100.00;95780.28;5070822;28;20211;-60
2021/06/02 00:52:58;;;;;;;1999.90;999.90;;;;;;;10.32;100.00;95776.41;5071045;28;20295;-60
2021/06/02 00:55:25;;;;;;;1999.90;999.90;;;;;;;10.24;100.00;95784.84;5070471;28;20226;-61
2021/06/02 00:57:55;;;;;;;1999.90;999.90;;;;;;;10.21;100.00;95782.84;5070440;28;20192;-61
2021/06/02 01:00:24;;;;;;;1999.90;999.90;;;;;;;10.08;100.00;95778.31;5070563;28;20224;-60
2021/06/02 01:02:52;;;;;;;1999.90;999.90;;;;;;;10.13;100.00;95776.41;5070445;28;20262;-61
2021/06/02 01:05:22;;;;;;;1999.90;999.90;;;;;;;10.08;100.00;95778.31;5070654;28;20246;-59
2021/06/02 01:07:51;;;;;;;1999.90;999.90;;;;;;;10.08;100.00;95775.72;5070446;28;20285;-60
2021/06/02 01:10:20;;;;;;;1999.90;999.90;;;;;;;10.04;100.00;95785.13;5070651;28;20219;-60
2021/06/02 01:12:50;;;;;;;1999.90;999.90;;;;;;;9.94;100.00;95784.22;5070261;28;20567;-62
2021/06/02 01:15:18;;;;;;;1999.90;999.90;;;;;;;9.99;100.00;95785.97;5070527;28;20192;-60
2021/06/02 01:17:46;;;;;;;1999.90;999.90;;;;;;;9.90;100.00;95779.88;5070166;28;20283;-60
2021/06/02 01:20:15;;;;;;;1999.90;999.90;;;;;;;9.92;100.00;95783.72;5070141;28;20201;-60
2021/06/02 01:26:05;;;;;;;1999.90;999.90;;;;;;;9.87;100.00;95785.59;5070178;28;20299;-61
2021/06/02 01:28:32;;;;;;;1999.90;999.90;;;;;;;9.74;100.00;95783.72;5070053;28;20235;-61
2021/06/02 01:30:59;;;;;;;1999.90;999.90;;;;;;;9.76;100.00;95786.81;5070244;28;20279;-60
2021/06/02 01:33:49;;;;;;;1999.90;999.90;;;;;;;9.68;100.00;95779.66;5069385;28;20196;-59
2021/06/02 01:36:24;;;;;;;1999.90;999.90;;;;;;;9.64;100.00;95782.03;5070356;28;20292;-59
2021/06/02 01:39:28;;;;;;;1999.90;999.90;;;;;;;9.65;100.00;95788.78;5070347;28;20722;-60
2021/06/02 01:42:21;;;;;;;1999.90;999.90;;;;;;;9.67;100.00;95783.28;5049780;28;20574;-60
2021/06/02 01:45:34;;;;;;;1999.90;999.90;;;;;;;9.59;100.00;95778.72;5070351;28;20219;-61
2021/06/02 01:48:31;;;;;;;1999.90;999.90;;;;;;;9.25;100.00;95776.31;5069761;28;20598;-61
2021/06/02 01:51:35;;;;;;;1999.90;999.90;;;;;;;9.21;100.00;95783.88;5070014;28;20192;-60
2021/06/02 01:54:45;;;;;;;1999.90;999.90;;;;;;;9.10;100.00;95782.44;5069888;28;20192;-61
2021/06/02 01:57:45;;;;;;;1999.90;999.90;;;;;;;9.12;100.00;95780.31;5007823;28;20198;-61
2021/06/02 02:00:42;;;;;;;1999.90;999.90;;;;;;;9.15;100.00;95779.78;5008000;28;20237;-60
2021/06/02 02:03:53;;;;;;;1999.90;999.90;;;;;;;9.08;100.00;95792.28;5059589;28;20199;-59
2021/06/02 02:06:54;;;;;;;1999.90;999.90;;;;;;;8.91;100.00;95791.97;5069746;28;20197;-60
2021/06/02 02:09:31;;;;;;;1999.90;999.90;;;;;;;8.89;100.00;95794.81;5069805;28;20278;-59
2021/06/02 02:12:06;;;;;;;1999.90;999.90;;;;;;;8.92;100.00;95798.69;5069772;28;20192;-61
2021/06/02 02:14:59;;;;;;;1999.90;999.90;;;;;;;8.85;100.00;95803.44;5069580;28;20232;-60
2021/06/02 02:17:54;;;;;;;1999.90;999.90;;;;;;;8.81;100.00;95807.63;5069403;28;20201;-60
2021/06/02 02:20:29;;;;;;;1999.90;999.90;;;;;;;8.70;100.00;95811.34;5069618;28;20698;-60
2021/06/02 02:23:03;;;;;;;1999.90;999.90;;;;;;;8.61;100.00;95803.41;5069770;28;20254;-58
2021/06/02 02:25:43;;;;;;;1999.90;999.90;;;;;;;8.61;100.00;95801.59;5069270;28;20631;-59
2021/06/02 02:28:22;;;;;;;1999.90;999.90;;;;;;;8.64;100.00;95803.63;5069725;28;20235;-60
2021/06/02 02:30:57;;;;;;;1999.90;999.90;;;;;;;8.68;100.00;95805.66;5069806;28;20638;-61
2021/06/02 02:33:38;;;;;;;1999.90;999.90;;;;;;;8.58;100.00;95809.88;5069508;28;20668;-59
2021/06/02 02:36:12;;;;;;;1999.90;999.90;;;;;;;8.60;100.00;95805.22;5069463;28;20200;-60
2021/06/02 02:38:55;;;;;;;1999.90;999.90;;;;;;;8.69;100.00;95810.56;5069559;28;20201;-59
2021/06/02 02:41:39;;;;;;;1999.90;999.90;;;;;;;8.77;100.00;95817.75;5069610;28;20605;-60
2021/06/02 02:44:14;;;;;;;1999.90;999.90;;;;;;;8.73;100.00;95826.34;5069493;28;20200;-59
2021/06/02 02:46:47;;;;;;;1999.90;999.90;;;;;;;8.72;100.00;95822.22;5073100;28;20207;-59
2021/06/02 02:49:23;;;;;;;1999.90;999.90;;;;;;;8.74;100.00;95822.69;5073215;28;20759;-59
2021/06/02 02:52:03;;;;;;;1999.90;999.90;;;;;;;8.80;100.00;95821.63;5073073;28;20288;-61
2021/06/02 02:54:36;;;;;;;1999.90;999.90;;;;;;;8.85;100.00;95818.97;5073181;28;20201;-61
2021/06/02 02:57:13;;;;;;;1999.90;999.90;;;;;;;8.70;100.00;95816.53;5072848;28;20201;-60
2021/06/02 02:59:47;;;;;;;1999.90;999.90;;;;;;;8.62;100.00;95816.06;5073052;28;20204;-60
2021/06/02 03:02:17;;;;;;;1999.90;999.90;;;;;;;8.67;100.00;95823.00;5072684;28;20202;-60
2021/06/02 03:04:51;;;;;;;1999.90;999.90;;;;;;;8.75;100.00;95824.25;5072633;28;20189;-60
2021/06/02 03:07:19;;;;;;;1999.90;999.90;;;;;;;8.75;100.00;95830.22;5072660;28;20234;-60
2021/06/02 03:09:49;;;;;;;1999.90;999.90;;;;;;;8.77;100.00;95833.28;5073093;28;20616;-62
2021/06/02 03:12:33;;;;;;;1999.90;999.90;;;;;;;8.77;100.00;95828.09;5072793;28;20200;-60
2021/06/02 03:15:04;;;;;;;1999.90;999.90;;;;;;;8.80;100.00;95831.97;5072620;28;20198;-60
2021/06/02 03:17:36;;;;;;;1999.90;999.90;;;;;;;8.88;100.00;95828.78;5072485;28;20204;-59
2021/06/02 03:20:15;;;;;;;1999.90;999.90;;;;;;;8.83;100.00;95834.78;5072531;28;20219;-62
2021/06/02 03:23:11;;;;;;;1999.90;999.90;;;;;;;8.90;100.00;95831.88;5072800;28;20196;-61
2021/06/02 03:25:42;;;;;;;1999.90;999.90;;;;;;;8.91;100.00;95828.25;5071952;28;20667;-60
2021/06/02 03:28:31;;;;;;;1999.90;999.90;;;;;;;8.93;100.00;95836.50;5072331;28;20224;-61
2021/06/02 03:31:03;;;;;;;1999.90;999.90;;;;;;;8.94;100.00;95843.25;5072194;28;20197;-60
2021/06/02 03:33:55;;;;;;;1999.90;999.90;;;;;;;8.94;100.00;95843.25;5072224;28;20189;-61
2021/06/02 03:36:36;;;;;;;1999.90;999.90;;;;;;;8.94;100.00;95849.22;5072089;28;20192;-60
2021/06/02 03:39:09;;;;;;;1999.90;999.90;;;;;;;8.98;100.00;95850.19;5072439;28;20200;-61
2021/06/02 03:41:48;;;;;;;1999.90;999.90;;;;;;;9.03;100.00;95862.34;5072234;28;20197;-60
2021/06/02 03:44:28;;;;;;;1999.90;999.90;;;;;;;9.02;100.00;95861.56;5072012;28;20192;-61
2021/06/02 03:47:12;;;;;;;1999.90;999.90;;;;;;;9.04;100.00;95856.88;5071740;28;20664;-61
2021/06/02 03:49:50;;;;;;;1999.90;999.90;;;;;;;9.07;100.00;95860.75;5071959;28;20196;-60
2021/06/02 03:52:44;;;;;;;1999.90;999.90;;;;;;;9.10;100.00;95865.41;5071941;28;20188;-59
2021/06/02 03:55:21;;;;;;;1999.90;999.90;;;;;;;9.11;100.00;95877.31;5071854;28;20203;-61
2021/06/02 03:57:55;;;;;;;1999.90;999.90;;;;;;;9.21;100.00;95876.44;5071010;28;20189;-59
2021/06/02 04:00:33;;;;;;;1999.90;999.90;;;;;;;9.18;100.00;95879.56;5071802;28;20627;-60
2021/06/02 04:03:07;;;;;;;1999.90;999.90;;;;;;;9.32;100.00;95889.00;5071600;28;20192;-60
2021/06/02 04:05:47;;;;;;;1999.90;999.90;;;;;;;9.41;100.00;95887.34;5071429;28;20195;-60
2021/06/02 04:08:23;;;;;;;1999.90;999.90;;;;;;;9.51;100.00;95889.09;5071410;28;20224;-61
2021/06/02 04:11:09;;;;;;;1999.90;999.90;;;;;;;9.68;100.00;95888.63;5071571;28;20215;-59
2021/06/02 04:13:52;;;;;;;1999.90;999.90;;;;;;;9.88;100.00;95893.59;5071307;28;20188;-60
2021/06/02 04:16:22;;;;;;;1999.90;999.90;;;;;;;10.12;100.00;95894.31;5071055;28;20196;-61
2021/06/02 04:18:49;;;;;;;1999.90;999.90;;;;;;;10.35;100.00;95901.31;5071538;28;20200;-62
2021/06/02 04:21:18;;;;;;;1999.90;999.90;;;;;;;10.63;100.00;95904.03;5071108;28;20664;-60
2021/06/02 04:23:47;;;;;;;1999.90;999.90;;;;;;;10.60;100.00;95912.41;5070838;28;20267;-60
2021/06/02 04:26:15;;;;;;;1999.90;999.90;;;;;;;10.77;100.00;95912.66;5071350;28;20216;-61
2021/06/02 04:28:43;;;;;;;1999.90;999.90;;;;;;;10.95;100.00;95908.47;5070962;28;20232;-61
2021/06/02 04:31:13;;;;;;;1999.90;999.90;;;;;;;11.16;100.00;95914.88;5070779;28;20257;-60
2021/06/02 04:33:42;;;;;;;1999.90;999.90;;;;;;;11.21;100.00;95918.16;5071111;28;20218;-60
2021/06/02 04:36:11;;;;;;;1999.90;999.90;;;;;;;11.35;100.00;95914.84;5070747;28;20207;-60
2021/06/02 04:38:38;;;;;;;1999.90;999.90;;;;;;;11.37;100.00;95917.91;5071137;28;20200;-61
2021/06/02 04:41:09;;;;;;;1999.90;999.90;;;;;;;11.45;99.59;95925.06;5070895;28;20204;-59
2021/06/02 04:43:37;;;;;;;1999.90;999.90;;;;;;;11.41;99.25;95926.69;5070964;28;20332;-60
2021/06/02 04:46:07;;;;;;;1999.90;999.90;;;;;;;11.35;100.00;95920.81;5070589;28;20192;-59
2021/06/02 04:48:34;;;;;;;1999.90;999.90;;;;;;;11.44;99.96;95915.72;5070778;28;20224;-59
2021/06/02 04:51:59;;;;;;;1999.90;999.90;;;;;;;11.47;99.96;95930.72;5070831;28;20224;-60
2021/06/02 04:54:54;;;;;;;1999.90;999.90;;;;;;;11.59;100.00;95923.25;5069701;28;20200;-61
2021/06/02 04:57:57;;;;;;;1999.90;999.90;;;;;;;11.59;98.37;95926.63;5070599;28;20192;-61
2021/06/02 05:01:00;;;;;;;1999.90;999.90;;;;;;;11.71;97.70;95928.72;5070356;28;20192;-61
2021/06/02 05:03:51;;;;;;;1999.90;999.90;;;;;;;11.73;97.25;95925.88;5070309;28;20200;-58
2021/06/02 05:06:53;;;;;;;1999.90;999.90;;;;;;;11.98;96.77;95928.75;5070385;28;20203;-60
2021/06/02 05:10:34;;;;;;;1999.90;999.90;;;;;;;12.18;95.90;95929.41;5070296;28;20223;-60
2021/06/02 05:13:50;;;;;;;1999.90;999.90;;;;;;;12.25;96.21;95937.63;5070159;28;20244;-60
2021/06/02 05:17:04;;;;;;;1999.90;999.90;;;;;;;12.45;94.53;95937.94;5070407;28;20201;-59
2021/06/02 05:20:50;;;;;;;1999.90;999.90;;;;;;;12.54;94.64;95940.63;5008164;28;20244;-59
2021/06/02 05:23:48;;;;;;;1999.90;999.90;;;;;;;12.83;93.02;95940.25;5008062;28;20199;-60
2021/06/02 05:26:50;;;;;;;1999.90;999.90;;;;;;;13.09;94.07;95930.00;5070092;28;20224;-61
2021/06/02 05:30:06;;;;;;;1999.90;999.90;;;;;;;13.29;94.65;95932.13;5067532;28;20310;-61
2021/06/02 05:33:20;;;;;;;1999.90;999.90;;;;;;;13.41;93.64;95927.13;5070136;28;20188;-62
2021/06/02 05:36:16;;;;;;;1999.90;999.90;;;;;;;13.90;94.19;95931.31;5070326;28;20188;-59
2021/06/02 05:39:06;;;;;;;1999.90;999.90;;;;;;;14.46;92.44;95932.38;5070072;28;20204;-60
2021/06/02 05:41:56;;;;;;;1999.90;999.90;;;;;;;14.73;88.63;95939.16;5070071;28;20189;-59
2021/06/02 05:44:58;;;;;;;1999.90;999.90;;;;;;;14.95;88.66;95941.59;5070034;28;20762;-59
2021/06/02 05:48:12;;;;;;;1999.90;999.90;;;;;;;15.47;87.56;95944.91;5069912;28;20269;-59
2021/06/02 05:51:17;;;;;;;1999.90;999.90;;;;;;;15.68;86.88;95940.56;5070187;28;20199;-60
2021/06/02 05:54:05;;;;;;;1999.90;999.90;;;;;;;15.58;84.35;95932.25;5069885;28;20196;-60
2021/06/02 05:57:09;;;;;;;1999.90;999.90;;;;;;;15.41;87.04;95938.28;5070252;28;20258;-59
2021/06/02 06:00:05;;;;;;;1999.90;999.90;;;;;;;15.63;85.72;95935.50;5069833;28;20200;-59
2021/06/02 06:03:13;;;;;;;1999.90;999.90;;;;;;;15.61;83.69;95936.88;5069939;28;20211;-60
2021/06/02 06:06:13;;;;;;;1999.90;999.90;;;;;;;15.57;84.49;95943.81;5054530;28;20194;-60
2021/06/02 06:09:24;;;;;;;1999.90;999.90;;;;;;;15.45;84.66;95939.97;5069712;28;20238;-61
2021/06/02 06:12:27;;;;;;;1999.90;999.90;;;;;;;15.35;84.87;95939.53;5069787;28;20235;-60
2021/06/02 06:15:39;;;;;;;1999.90;999.90;;;;;;;14.96;84.07;95943.16;5069675;28;20272;-61
2021/06/02 06:18:28;;;;;;;1999.90;999.90;;;;;;;15.17;86.42;95938.03;5054644;28;20679;-61
2021/06/02 06:21:30;;;;;;;1999.90;999.90;;;;;;;15.25;84.17;95943.25;5073236;28;20207;-61
2021/06/02 06:24:03;;;;;;;1999.90;999.90;;;;;;;15.31;81.92;95949.88;5073491;28;20228;-61
2021/06/02 06:26:35;;;;;;;1999.90;999.90;;;;;;;15.49;84.02;95950.59;5073464;28;20247;-61
2021/06/02 06:29:09;;;;;;;1999.90;999.90;;;;;;;15.73;82.72;95955.34;5073370;28;20373;-61
2021/06/02 06:31:39;;;;;;;1999.90;999.90;;;;;;;15.83;84.07;95960.22;5073263;28;20205;-61
2021/06/02 06:34:09;;;;;;;1999.90;999.90;;;;;;;15.67;82.61;95957.34;5073324;28;20629;-62
2021/06/02 06:36:39;;;;;;;1999.90;999.90;;;;;;;16.05;80.41;95967.81;5073408;28;20694;-61
2021/06/02 06:39:23;;;;;;;1999.90;999.90;;;;;;;16.07;80.98;95959.66;5073443;28;20188;-60
2021/06/02 06:41:51;;;;;;;1999.90;999.90;;;;;;;16.34;77.99;95967.81;5073199;28;20211;-61
2021/06/02 06:44:20;;;;;;;1999.90;999.90;;;;;;;16.39;79.95;95966.88;5073419;28;20200;-60
2021/06/02 06:46:49;;;;;;;1999.90;999.90;;;;;;;16.51;78.91;95964.31;5073030;28;20234;-59
2021/06/02 06:49:16;;;;;;;1999.90;999.90;;;;;;;16.29;78.36;95967.22;5072883;28;20260;-60
2021/06/02 06:51:52;;;;;;;1999.90;999.90;;;;;;;16.41;80.41;95959.47;5073104;28;20200;-60
2021/06/02 06:54:20;;;;;;;1999.90;999.90;;;;;;;16.29;76.96;95965.38;5072979;28;20200;-61
2021/06/02 06:56:48;;;;;;;1999.90;999.90;;;;;;;16.04;79.28;95961.03;5072853;28;20200;-59
2021/06/02 06:59:20;;;;;;;1999.90;999.90;;;;;;;16.13;81.02;95961.00;5072845;28;20192;-61
2021/06/02 07:01:47;;;;;;;1999.90;999.90;;;;;;;16.04;80.33;95955.06;5072773;28;20200;-60
2021/06/02 07:04:15;;;;;;;1999.90;999.90;;;;;;;16.27;81.17;95954.47;5072714;28;20195;-62
2021/06/02 07:06:45;;;;;;;1999.90;999.90;;;;;;;16.42;78.62;95954.97;5072823;28;20257;-61
2021/06/02 07:09:13;;;;;;;1999.90;999.90;;;;;;;16.61;76.18;95958.72;5072416;28;20746;-60
2021/06/02 07:11:41;;;;;;;1999.90;999.90;;;;;;;16.69;75.40;95949.25;5072589;28;20197;-61
2021/06/02 07:14:11;;;;;;;1999.90;999.90;;;;;;;16.70;75.05;95950.78;5072588;28;20250;-60
2021/06/02 07:16:40;;;;;;;1999.90;999.90;;;;;;;17.04;74.56;95945.25;5072741;28;20204;-60
2021/06/02 07:19:08;;;;;;;1999.90;999.90;;;;;;;17.40;74.94;95943.81;5072607;28;20197;-60
2021/06/02 07:21:40;;;;;;;1999.90;999.90;;;;;;;17.27;72.17;95950.94;5072291;28;20196;-61
2021/06/02 07:24:09;;;;;;;1999.90;999.90;;;;;;;17.19;71.45;95949.13;5072599;28;20248;-60
2021/06/02 07:26:37;;;;;;;1999.90;999.90;;;;;;;17.34;71.09;95947.75;5072471;28;20659;-59
2021/06/02 07:29:03;;;;;;;1999.90;999.90;;;;;;;17.48;71.92;95943.00;5072288;28;20311;-60
2021/06/02 07:31:30;;;;;;;1999.90;999.90;;;;;;;17.84;72.46;95944.91;5071028;28;20287;-60
2021/06/02 07:33:57;;;;;;;1999.90;999.90;;;;;;;18.00;70.80;95943.16;5072229;28;20262;-59
2021/06/02 07:36:24;;;;;;;1999.90;999.90;;;;;;;17.78;72.11;95940.97;5072192;28;20192;-60
2021/06/02 07:38:51;;;;;;;1999.90;999.90;;;;;;;17.68;71.49;95931.66;5072245;28;20204;-60
2021/06/02 07:41:19;;;;;;;1999.90;999.90;;;;;;;17.79;71.17;95938.00;5072045;28;20682;-60
2021/06/02 07:43:46;;;;;;;1999.90;999.90;;;;;;;17.90;71.10;95939.13;5071936;28;20313;-59
2021/06/02 07:46:13;;;;;;;1999.90;999.90;;;;;;;17.94;71.91;95945.25;5072217;28;20250;-59
2021/06/02 07:48:40;;;;;;;1999.90;999.90;;;;;;;17.82;70.60;95942.63;5071862;28;20235;-60
2021/06/02 07:51:07;;;;;;;1999.90;999.90;;;;;;;17.56;69.51;95932.38;5072113;28;20228;-60
2021/06/02 07:53:34;;;;;;;1999.90;999.90;;;;;;;17.78;72.48;95933.88;5071862;28;20196;-59
2021/06/02 07:56:01;;;;;;;1999.90;999.90;;;;;;;17.58;67.98;95938.06;5071968;28;20242;-59
2021/06/02 07:58:29;;;;;;;1999.90;999.90;;;;;;;17.64;67.77;95934.16;5071627;28;20691;-60
2021/06/02 08:00:56;;;;;;;1999.90;999.90;;;;;;;18.20;68.19;95934.38;5071626;28;20196;-60
2021/06/02 08:03:23;;;;;;;1999.90;999.90;;;;;;;18.36;66.08;95934.47;5071583;28;20224;-60
2021/06/02 08:05:50;;;;;;;1999.90;999.90;;;;;;;18.79;65.03;95939.88;5072137;28;20681;-60
2021/06/02 08:08:17;;;;;;;1999.90;999.90;;;;;;;19.27;65.57;95924.97;5071505;28;20232;-59
2021/06/02 08:10:44;;;;;;;1999.90;999.90;;;;;;;19.75;64.82;95937.88;5071523;28;20613;-60
2021/06/02 08:13:11;;;;;;;1999.90;999.90;;;;;;;19.25;62.15;95932.44;5071356;28;20192;-62
2021/06/02 08:15:39;;;;;;;1999.90;999.90;;;;;;;19.00;60.78;95929.16;5071361;28;20694;-59
2021/06/02 08:18:06;;;;;;;1999.90;999.90;;;;;;;18.93;63.12;95927.09;5071226;28;20234;-59
2021/06/02 08:20:33;;;;;;;1999.90;999.90;;;;;;;18.74;62.59;95931.44;5071199;28;20195;-59
2021/06/02 08:23:00;;;;;;;1999.90;999.90;;;;;;;18.01;64.07;95919.16;5071669;28;20203;-60
2021/06/02 08:25:27;;;;;;;1999.90;999.90;;;;;;;17.97;66.26;95920.94;5070746;28;20778;-59
2021/06/02 08:27:54;;;;;;;1999.90;999.90;;;;;;;18.19;64.94;95924.94;5071027;28;20300;-60
2021/06/02 08:30:22;;;;;;;1999.90;999.90;;;;;;;18.04;65.61;95925.63;5071185;28;20204;-59
2021/06/02 08:32:50;;;;;;;1999.90;999.90;;;;;;;18.10;65.57;95921.69;5071060;28;20196;-60
2021/06/02 08:35:18;;;;;;;1999.90;999.90;;;;;;;18.00;62.73;95924.75;5071457;28;20219;-60
2021/06/02 08:37:45;;;;;;;1999.90;999.90;;;;;;;18.04;63.79;95926.41;5070888;28;20266;-60
2021/06/02 08:40:14;;;;;;;1999.90;999.90;;;;;;;18.02;65.36;95925.97;5071199;28;20329;-60
2021/06/02 08:42:41;;;;;;;1999.90;999.90;;;;;;;18.16;64.26;95925.63;5070927;28;20280;-60
2021/06/02 08:45:10;;;;;;;1999.90;999.90;;;;;;;18.08;66.88;95925.75;5070736;28;20660;-60
2021/06/02 08:47:37;;;;;;;1999.90;999.90;;;;;;;18.16;66.30;95930.88;5070859;28;20192;-60
2021/06/02 08:50:08;;;;;;;1999.90;999.90;;;;;;;17.96;64.83;95931.78;5071090;28;20465;-59
2021/06/02 08:52:36;;;;;;;1999.90;999.90;;;;;;;17.75;65.01;95937.13;5070858;28;20199;-60
2021/06/02 08:55:05;;;;;;;1999.90;999.90;;;;;;;17.79;64.76;95932.75;5070850;28;20207;-60
2021/06/02 08:57:33;;;;;;;1999.90;999.90;;;;;;;17.89;65.75;95931.53;5070808;28;20216;-60
2021/06/02 09:00:00;;;;;;;1999.90;999.90;;;;;;;18.05;67.01;95935.81;5071035;28;20207;-59
2021/06/02 09:02:26;;;;;;;1999.90;999.90;;;;;;;18.13;67.11;95936.06;5070876;28;20565;-60
2021/06/02 09:04:53;;;;;;;1999.90;999.90;;;;;;;18.11;65.83;95940.88;5070557;28;20558;-60
2021/06/02 09:07:23;;;;;;;1999.90;999.90;;;;;;;18.12;63.02;95942.41;5070419;28;20629;-59
2021/06/02 09:09:52;;;;;;;1999.90;999.90;;;;;;;18.33;63.68;95940.41;5070395;28;20258;-60
2021/06/02 09:12:32;;;;;;;1999.90;999.90;;;;;;;18.47;63.79;95941.59;5070629;28;20291;-60
2021/06/02 09:15:05;;;;;;;1999.90;999.90;;;;;;;18.43;62.34;95934.69;5070405;28;20203;-60
2021/06/02 09:17:46;;;;;;;1999.90;999.90;;;;;;;18.39;63.05;95933.81;5070562;28;20204;-61
2021/06/02 09:20:13;;;;;;;1999.90;999.90;;;;;;;18.40;63.43;95935.34;5070589;28;20691;-61
2021/06/02 09:22:41;;;;;;;1999.90;999.90;;;;;;;18.48;65.33;95931.81;5070192;28;20561;-60
2021/06/02 09:25:09;;;;;;;1999.90;999.90;;;;;;;18.48;63.29;95937.84;5070251;28;20236;-59
2021/06/02 09:27:46;;;;;;;1999.90;999.90;;;;;;;18.47;64.18;95938.19;5070286;28;20244;-59
2021/06/02 09:30:17;;;;;;;1999.90;999.90;;;;;;;18.29;63.41;95931.63;5070365;28;20229;-60
2021/06/02 09:32:47;;;;;;;1999.90;999.90;;;;;;;18.50;63.82;95934.88;5070085;28;20203;-60
2021/06/02 09:35:15;;;;;;;1999.90;999.90;;;;;;;18.47;63.02;95933.69;5070254;28;20280;-62
2021/06/02 09:37:55;;;;;;;1999.90;999.90;;;;;;;18.48;64.90;95931.81;5070223;28;20602;-59
2021/06/02 09:40:27;;;;;;;1999.90;999.90;;;;;;;18.29;63.43;95923.72;5070088;28;20204;-59
2021/06/02 09:42:54;;;;;;;1999.90;999.90;;;;;;;18.17;63.81;95927.16;5070131;28;20196;-60
2021/06/02 09:45:22;;;;;;;1999.90;999.90;;;;;;;18.08;65.06;95932.53;5069945;28;20202;-60
2021/06/02 09:47:51;;;;;;;1999.90;999.90;;;;;;;17.99;66.33;95926.63;5070143;28;20212;-59
2021/06/02 09:50:26;;;;;;;1999.90;999.90;;;;;;;17.98;64.34;95930.34;5070075;28;20279;-58
2021/06/02 09:52:55;;;;;;;1999.90;999.90;;;;;;;17.87;66.54;95923.22;5070087;28;20196;-60
2021/06/02 09:55:24;;;;;;;1999.90;999.90;;;;;;;17.92;67.29;95920.38;5072135;28;20202;-60
2021/06/02 09:58:08;;;;;;;1999.90;999.90;;;;;;;17.87;68.67;95924.00;5074067;28;20192;-58
2021/06/02 10:00:37;;;;;;;1999.90;999.90;;;;;;;17.82;68.01;95924.22;5074350;28;20255;-61
2021/06/02 10:03:05;;;;;;;1999.90;999.90;;;;;;;17.77;66.76;95923.66;5073890;28;20227;-59
2021/06/02 10:05:37;;;;;;;1999.90;999.90;;;;;;;17.77;67.56;95924.44;5074053;28;20200;-60
2021/06/02 10:08:05;;;;;;;1999.90;999.90;;;;;;;17.82;68.68;95921.59;5074045;28;20235;-61
2021/06/02 10:10:33;;;;;;;1999.90;999.90;;;;;;;17.90;66.94;95925.97;5073876;28;20205;-60
2021/06/02 10:13:02;;;;;;;1999.90;999.90;;;;;;;17.94;66.75;95921.56;5074037;28;20575;-60
2021/06/02 10:15:32;;;;;;;1999.90;999.90;;;;;;;18.07;65.62;95927.63;5073705;28;20284;-59
2021/06/02 10:18:00;;;;;;;1999.90;999.90;;;;;;;18.11;65.72;95922.44;5073650;28;20197;-59
2021/06/02 10:20:27;;;;;;;1999.90;999.90;;;;;;;18.31;66.77;95922.31;5073567;28;20196;-59
2021/06/02 10:22:56;;;;;;;1999.90;999.90;;;;;;;18.21;66.89;95924.63;5073500;28;20200;-59
2021/06/02 10:25:26;;;;;;;1999.90;999.90;;;;;;;18.32;66.12;95926.50;5073197;28;20640;-61
2021/06/02 10:27:54;;;;;;;1999.90;999.90;;;;;;;18.23;66.66;95927.72;5073470;28;20614;-59
2021/06/02 10:30:23;;;;;;;1999.90;999.90;;;;;;;18.02;67.52;95920.72;5073394;28;20201;-59
2021/06/02 10:32:51;;;;;;;1999.90;999.90;;;;;;;18.05;67.55;95927.16;5073378;28;20211;-58
2021/06/02 10:35:18;;;;;;;1999.90;999.90;;;;;;;17.96;67.51;95932.53;5073386;28;20243;-59
2021/06/02 10:37:45;;;;;;;1999.90;999.90;;;;;;;17.90;67.32;95927.81;5073198;28;20196;-59
2021/06/02 10:40:18;;;;;;;1999.90;999.90;;;;;;;17.78;67.08;95925.97;5073244;28;20422;-61
2021/06/02 10:43:00;;;;;;;1999.90;999.90;;;;;;;17.77;66.79;95924.44;5073344;28;20637;-60
2021/06/02 10:45:30;;;;;;;1999.90;999.90;;;;;;;17.65;67.91;95921.78;5073325;28;20249;-61
2021/06/02 10:47:59;;;;;;;1999.90;999.90;;;;;;;17.74;67.99;95922.44;5072926;28;20283;-59
2021/06/02 10:50:37;;;;;;;1999.90;999.90;;;;;;;17.82;68.23;95926.84;5073287;28;20196;-60
2021/06/02 10:53:21;;;;;;;1999.90;999.90;;;;;;;17.73;69.01;95925.41;5072962;28;20283;-59
2021/06/02 10:55:49;;;;;;;1999.90;999.90;;;;;;;17.65;68.55;95919.16;5072877;28;20193;-59
2021/06/02 10:58:25;;;;;;;1999.90;999.90;;;;;;;17.54;68.94;95924.03;5072830;28;20635;-59
2021/06/02 11:00:54;;;;;;;1999.90;999.90;;;;;;;17.55;67.70;95925.56;5073031;28;20641;-59
2021/06/02 11:03:27;;;;;;;1999.90;999.90;;;;;;;17.39;69.55;95918.66;5072795;28;20271;-61
2021/06/02 11:05:58;;;;;;;1999.90;999.90;;;;;;;17.50;70.12;95927.66;5072781;28;20196;-60
2021/06/02 11:08:58;;;;;;;1999.90;999.90;;;;;;;17.42;69.80;95931.16;5072837;28;20220;-61
2021/06/02 11:11:27;;;;;;;1999.90;999.90;;;;;;;17.46;69.75;95929.41;5072719;28;20273;-58
2021/06/02 11:14:29;;;;;;;1999.90;999.90;;;;;;;17.54;70.33;95931.94;5072668;28;20752;-58
2021/06/02 11:17:01;;;;;;;1999.90;999.90;;;;;;;17.56;70.14;95931.59;5069138;28;20196;-60
2021/06/02 11:19:30;;;;;;;1999.90;999.90;;;;;;;17.72;70.28;95922.03;5072706;28;20224;-60
2021/06/02 11:22:05;;;;;;;1999.90;999.90;;;;;;;17.85;69.82;95926.19;5072670;28;20196;-59
2021/06/02 11:24:39;;;;;;;1999.90;999.90;;;;;;;17.99;69.46;95923.22;5072100;28;20304;-59
2021/06/02 11:27:43;;;;;;;1999.90;999.90;;;;;;;18.26;67.79;95927.03;5072346;28;20215;-59
2021/06/02 11:30:28;;;;;;;1999.90;999.90;;;;;;;18.13;67.02;95920.28;5072477;28;20710;-61
2021/06/02 11:33:10;;;;;;;1999.90;999.90;;;;;;;18.21;68.09;95917.50;5072286;28;20196;-60
2021/06/02 11:35:58;;;;;;;1999.90;999.90;;;;;;;18.05;68.77;95914.78;5072505;28;20204;-59
2021/06/02 11:38:26;;;;;;;1999.90;999.90;;;;;;;18.13;68.85;95915.78;5072221;28;20220;-62